Time;durP1;ratioP1;P1;durP2;ratioP2;P2;SDS_P1;SDS_P2;PMS_P1;PMS_P2;Temp;Humidity;BMP_temperature;BMP_pressure;BME280_temperature;BME280_humidity;BME280_pressure;Samples;Min_cycle;Max_cycle;Signal;HPM_P1;HPM_P2
2022/01/06 00:02:07;;;;;;;9.13;3.10;;;7.80;58.00;;;;;;5049232;28;20994;-86
2022/01/06 00:04:34;;;;;;;6.63;2.80;;;7.80;58.20;;;;;;5076230;28;20479;-88
2022/01/06 00:07:01;;;;;;;6.87;2.83;;;7.70;58.40;;;;;;5072430;28;20531;-89
2022/01/06 00:09:28;;;;;;;4.20;2.73;;;7.80;58.50;;;;;;5059267;28;21066;-86
2022/01/06 00:11:55;;;;;;;4.00;3.10;;;7.90;57.80;;;;;;5077232;28;20456;-86
2022/01/06 00:14:36;;;;;;;5.40;2.43;;;8.10;57.90;;;;;;5075334;28;20464;-86
2022/01/06 00:17:19;;;;;;;9.50;4.40;;;8.00;58.10;;;;;;5049082;28;20603;-86
2022/01/06 00:25:16;;;;;;;6.47;2.43;;;7.90;58.40;;;;;;5057232;28;20530;-87
2022/01/06 00:27:44;;;;;;;4.53;3.37;;;8.00;58.80;;;;;;5060026;28;20560;-86
2022/01/06 00:30:11;;;;;;;6.10;2.87;;;8.10;58.80;;;;;;5059246;28;20583;-88
2022/01/06 00:32:38;;;;;;;6.33;3.20;;;8.10;59.00;;;;;;5059182;28;20962;-86
2022/01/06 00:35:07;;;;;;;4.10;2.97;;;7.90;59.40;;;;;;5075028;28;20447;-86
2022/01/06 00:37:34;;;;;;;5.40;2.57;;;7.90;59.50;;;;;;5073416;28;20502;-88
2022/01/06 00:40:01;;;;;;;3.50;3.10;;;7.90;59.70;;;;;;5076085;28;20463;-89
2022/01/06 00:42:28;;;;;;;5.90;2.93;;;7.90;60.30;;;;;;5030616;28;20915;-86
2022/01/06 00:44:55;;;;;;;14.63;2.80;;;7.90;60.20;;;;;;5056263;28;20467;-87
2022/01/06 00:47:22;;;;;;;7.30;2.90;;;8.00;60.10;;;;;;5047158;28;20471;-87
2022/01/06 00:49:49;;;;;;;7.70;3.30;;;8.00;59.80;;;;;;5043449;28;20543;-88
2022/01/06 00:52:18;;;;;;;4.23;2.77;;;8.00;59.80;;;;;;5074499;28;20443;-87
2022/01/06 00:54:45;;;;;;;5.30;3.00;;;7.70;60.30;;;;;;5077019;28;20454;-86
2022/01/06 00:57:12;;;;;;;9.80;3.63;;;7.70;60.60;;;;;;5063393;28;20575;-86
2022/01/06 00:59:39;;;;;;;5.07;2.90;;;7.80;60.50;;;;;;5059926;28;20484;-87
2022/01/06 01:02:06;;;;;;;4.93;2.97;;;8.10;60.00;;;;;;5070862;28;20983;-87
2022/01/06 01:04:33;;;;;;;3.80;2.80;;;8.10;59.80;;;;;;5038493;28;20460;-87
2022/01/06 01:07:00;;;;;;;9.20;3.10;;;8.30;59.50;;;;;;5050203;28;20936;-85
2022/01/06 01:09:30;;;;;;;3.70;2.10;;;8.20;59.10;;;;;;5056494;28;20547;-86
2022/01/06 01:12:01;;;;;;;7.43;3.17;;;8.20;59.60;;;;;;5045829;28;20460;-89
2022/01/06 01:14:31;;;;;;;5.70;5.03;;;8.10;59.80;;;;;;5061626;28;20967;-87
2022/01/06 01:17:01;;;;;;;2.47;2.27;;;8.20;59.80;;;;;;5076559;28;20472;-88
2022/01/06 01:19:30;;;;;;;6.53;2.80;;;8.20;60.50;;;;;;5043123;28;20505;-86
2022/01/06 01:21:57;;;;;;;4.53;3.40;;;8.20;59.90;;;;;;5052533;28;20448;-88
2022/01/06 01:24:25;;;;;;;5.03;3.27;;;8.00;59.90;;;;;;5070174;28;20460;-87
2022/01/06 01:26:53;;;;;;;6.80;3.60;;;8.00;60.40;;;;;;5043073;28;20468;-87
2022/01/06 01:29:22;;;;;;;9.10;3.20;;;8.30;60.10;;;;;;5072454;28;20857;-86
2022/01/06 01:31:52;;;;;;;2.63;2.43;;;8.60;59.40;;;;;;5055250;28;20525;-86
2022/01/06 01:34:23;;;;;;;3.67;2.80;;;8.50;59.00;;;;;;5060301;28;20551;-87
2022/01/06 01:36:50;;;;;;;6.53;3.20;;;8.40;59.30;;;;;;5054897;28;20482;-86
2022/01/06 01:39:18;;;;;;;6.70;2.70;;;8.60;59.30;;;;;;5071100;28;20975;-87
2022/01/06 01:41:45;;;;;;;8.13;4.10;;;8.30;59.70;;;;;;5060514;28;20905;-86
2022/01/06 01:44:16;;;;;;;4.40;2.83;;;8.50;59.70;;;;;;5072987;28;20457;-88
2022/01/06 01:46:52;;;;;;;4.67;3.00;;;8.80;59.50;;;;;;5041367;28;20482;-87
2022/01/06 01:49:30;;;;;;;4.80;2.53;;;8.90;59.20;;;;;;5051285;28;20740;-87
2022/01/06 01:51:57;;;;;;;6.63;3.40;;;8.80;59.00;;;;;;5075815;28;20475;-88
2022/01/06 01:54:25;;;;;;;7.80;3.17;;;8.80;58.90;;;;;;5054764;28;21079;-84
2022/01/06 01:56:52;;;;;;;5.00;2.67;;;8.80;59.20;;;;;;5061323;28;20915;-87
2022/01/06 01:59:21;;;;;;;8.33;3.10;;;8.80;59.00;;;;;;5071986;28;20457;-87
2022/01/06 02:01:48;;;;;;;4.50;2.57;;;9.00;59.10;;;;;;5057725;28;20463;-89
2022/01/06 02:04:15;;;;;;;7.60;3.20;;;9.00;58.90;;;;;;5071491;28;20463;-86
2022/01/06 02:06:42;;;;;;;3.87;2.90;;;8.80;58.90;;;;;;5024277;28;20477;-86
2022/01/06 02:09:09;;;;;;;5.40;3.10;;;8.80;58.90;;;;;;5040198;28;20710;-88
2022/01/06 02:11:36;;;;;;;12.73;3.67;;;8.70;59.00;;;;;;5058216;28;20560;-86
2022/01/06 02:14:05;;;;;;;3.37;2.93;;;8.60;58.90;;;;;;5071833;28;20989;-89
2022/01/06 02:16:34;;;;;;;5.13;3.40;;;8.70;59.00;;;;;;5037534;28;20959;-86
2022/01/06 02:19:01;;;;;;;4.03;2.67;;;8.60;58.80;;;;;;5071538;28;20545;-87
2022/01/06 02:21:29;;;;;;;10.33;3.00;;;8.60;58.40;;;;;;5057303;28;20459;-88
2022/01/06 02:23:57;;;;;;;5.37;3.50;;;8.50;58.60;;;;;;5027965;28;20448;-86
2022/01/06 02:26:24;;;;;;;5.43;3.30;;;8.50;58.90;;;;;;5069900;28;20475;-87
2022/01/06 02:28:51;;;;;;;4.97;3.03;;;8.60;58.80;;;;;;5073796;28;20480;-89
2022/01/06 02:31:20;;;;;;;8.73;3.20;;;8.40;58.80;;;;;;5051221;28;20970;-86
2022/01/06 02:33:48;;;;;;;4.80;3.23;;;8.40;58.80;;;;;;5041152;28;20448;-89
2022/01/06 02:36:15;;;;;;;3.67;2.73;;;8.60;59.40;;;;;;5071704;28;20456;-88
2022/01/06 02:38:44;;;;;;;4.37;2.60;;;8.60;58.70;;;;;;5056832;28;20590;-86
2022/01/06 02:41:12;;;;;;;5.60;3.20;;;8.80;58.40;;;;;;5044017;28;20459;-87
2022/01/06 02:43:38;;;;;;;6.83;3.00;;;8.80;58.30;;;;;;5073048;28;20459;-87
2022/01/06 02:46:06;;;;;;;6.83;3.07;;;8.80;58.20;;;;;;5039617;28;20697;-86
2022/01/06 02:48:33;;;;;;;3.43;2.70;;;8.90;58.10;;;;;;5058532;28;20852;-86
2022/01/06 02:51:00;;;;;;;7.60;4.60;;;8.90;58.20;;;;;;5046078;28;20463;-88
2022/01/06 02:53:27;;;;;;;5.00;3.43;;;8.80;58.00;;;;;;5056336;28;21035;-87
2022/01/06 02:55:55;;;;;;;15.33;4.73;;;8.90;58.20;;;;;;5051571;28;20742;-86
2022/01/06 02:58:22;;;;;;;14.87;3.33;;;9.00;58.00;;;;;;5056468;28;20493;-88
2022/01/06 03:00:50;;;;;;;8.43;3.13;;;9.00;58.50;;;;;;5034056;28;20807;-87
2022/01/06 03:03:18;;;;;;;6.57;3.13;;;8.90;57.60;;;;;;5060767;28;20459;-86
2022/01/06 03:05:45;;;;;;;5.53;3.90;;;8.90;57.50;;;;;;5051452;28;20575;-86
2022/01/06 03:08:12;;;;;;;3.77;3.10;;;8.80;57.30;;;;;;5073479;28;20464;-86
2022/01/06 03:10:43;;;;;;;10.87;3.33;;;8.80;57.50;;;;;;5045595;28;20448;-86
2022/01/06 03:13:12;;;;;;;7.10;3.20;;;8.90;57.60;;;;;;5040997;28;20526;-87
2022/01/06 03:15:39;;;;;;;10.60;4.23;;;9.00;57.50;;;;;;5074591;28;20458;-89
2022/01/06 03:18:06;;;;;;;7.57;3.10;;;8.90;57.10;;;;;;5036613;28;20460;-88
2022/01/06 03:20:34;;;;;;;3.03;2.73;;;8.80;57.40;;;;;;5059908;28;20460;-89
2022/01/06 03:23:01;;;;;;;4.30;3.00;;;8.80;57.40;;;;;;5029229;28;21066;-88
2022/01/06 03:25:29;;;;;;;6.23;3.07;;;8.80;57.60;;;;;;5039887;28;20465;-86
2022/01/06 03:27:56;;;;;;;8.37;3.33;;;8.90;57.50;;;;;;5057110;28;20595;-87
2022/01/06 03:30:24;;;;;;;3.60;2.70;;;9.00;57.20;;;;;;5042295;28;20455;-86
2022/01/06 03:32:52;;;;;;;7.70;2.40;;;9.10;56.80;;;;;;5045493;28;20807;-86
2022/01/06 03:35:24;;;;;;;9.30;2.80;;;9.00;56.60;;;;;;5055843;28;20452;-88
2022/01/06 03:37:51;;;;;;;4.10;2.70;;;9.00;56.90;;;;;;5069974;28;20475;-87
2022/01/06 03:40:18;;;;;;;3.73;2.60;;;9.00;57.00;;;;;;5058144;28;20457;-88
2022/01/06 03:42:45;;;;;;;6.43;3.50;;;9.00;56.80;;;;;;5038987;28;20462;-86
2022/01/06 03:45:16;;;;;;;6.13;2.83;;;8.90;56.90;;;;;;5073916;28;20456;-86
2022/01/06 03:47:45;;;;;;;5.93;2.70;;;9.00;57.00;;;;;;5052461;28;20480;-86
2022/01/06 03:50:16;;;;;;;8.30;2.53;;;9.10;56.90;;;;;;5055952;28;20462;-87
2022/01/06 03:52:43;;;;;;;5.27;2.67;;;9.10;56.70;;;;;;5072609;28;20452;-86
2022/01/06 03:55:13;;;;;;;6.33;3.70;;;9.20;56.60;;;;;;5058159;28;20452;-89
2022/01/06 03:57:40;;;;;;;3.20;2.90;;;9.20;56.20;;;;;;5041348;28;20474;-86
2022/01/06 04:00:10;;;;;;;4.83;2.53;;;9.20;56.20;;;;;;5071765;28;20996;-86
2022/01/06 04:02:40;;;;;;;3.63;2.50;;;9.20;56.00;;;;;;5072796;28;20541;-88
2022/01/06 04:05:10;;;;;;;4.23;2.60;;;9.20;55.80;;;;;;5055007;28;20955;-89
2022/01/06 04:07:39;;;;;;;6.40;2.33;;;9.10;55.60;;;;;;5072530;28;20964;-88
2022/01/06 04:10:08;;;;;;;4.13;2.80;;;9.10;55.90;;;;;;5055132;28;20448;-88
2022/01/06 04:12:37;;;;;;;2.47;2.27;;;9.10;56.00;;;;;;5047115;28;20550;-88
2022/01/06 04:15:08;;;;;;;3.60;3.10;;;8.90;56.20;;;;;;5055002;28;20439;-87
2022/01/06 04:17:35;;;;;;;6.80;2.73;;;8.80;56.60;;;;;;5070089;28;20467;-87
2022/01/06 04:20:02;;;;;;;3.87;2.40;;;8.70;56.80;;;;;;5047582;28;20462;-87
2022/01/06 04:22:31;;;;;;;3.90;2.53;;;8.70;57.10;;;;;;5041290;28;20465;-86
2022/01/06 04:24:58;;;;;;;10.13;3.30;;;8.80;57.10;;;;;;5057970;28;20455;-88
2022/01/06 04:27:25;;;;;;;4.83;2.70;;;8.80;57.20;;;;;;5065242;28;20482;-88
2022/01/06 04:29:52;;;;;;;3.97;2.50;;;8.90;57.20;;;;;;5056923;28;20468;-87
2022/01/06 04:32:19;;;;;;;4.03;2.33;;;8.90;57.20;;;;;;5045335;28;20483;-87
2022/01/06 04:34:46;;;;;;;2.80;2.47;;;9.00;57.00;;;;;;5055621;28;21159;-86
2022/01/06 04:37:13;;;;;;;7.80;2.50;;;9.00;56.80;;;;;;5049437;28;20476;-87
2022/01/06 04:39:42;;;;;;;5.60;2.70;;;8.80;56.70;;;;;;5056120;28;20545;-88
2022/01/06 04:42:09;;;;;;;4.23;2.93;;;8.90;57.20;;;;;;5055757;28;20457;-86
2022/01/06 04:44:36;;;;;;;5.77;2.53;;;8.90;57.30;;;;;;5059379;28;20465;-89
2022/01/06 04:47:03;;;;;;;8.50;3.33;;;8.90;57.00;;;;;;5072060;28;20833;-87
2022/01/06 04:49:30;;;;;;;5.27;2.80;;;8.90;57.10;;;;;;5049006;28;20473;-87
2022/01/06 04:51:57;;;;;;;4.83;2.60;;;8.80;56.80;;;;;;5066317;28;20466;-87
2022/01/06 04:54:24;;;;;;;4.40;2.33;;;8.80;57.10;;;;;;5068893;28;21022;-88
2022/01/06 04:56:53;;;;;;;7.43;2.60;;;8.90;57.00;;;;;;5048549;28;20467;-87
2022/01/06 04:59:20;;;;;;;4.33;3.10;;;8.80;56.90;;;;;;5049518;28;20978;-86
2022/01/06 05:01:47;;;;;;;3.70;2.27;;;8.80;56.90;;;;;;5071898;28;20468;-87
2022/01/06 05:04:14;;;;;;;4.03;2.50;;;8.70;57.00;;;;;;5063865;28;20874;-85
2022/01/06 05:06:41;;;;;;;5.27;2.70;;;8.40;57.10;;;;;;5063403;28;20494;-86
2022/01/06 05:09:08;;;;;;;4.43;2.40;;;8.50;57.30;;;;;;5058153;28;20461;-86
2022/01/06 05:11:35;;;;;;;5.80;2.83;;;8.30;57.70;;;;;;5073977;28;20480;-88
2022/01/06 05:14:03;;;;;;;6.30;2.30;;;8.10;57.90;;;;;;5060364;28;20490;-86
2022/01/06 05:16:30;;;;;;;4.70;2.80;;;8.00;58.30;;;;;;5042964;28;20498;-87
2022/01/06 05:18:57;;;;;;;3.97;2.10;;;8.10;58.10;;;;;;5054428;28;20535;-87
2022/01/06 05:21:28;;;;;;;4.60;2.07;;;8.10;58.00;;;;;;5055213;28;20449;-86
2022/01/06 05:23:56;;;;;;;3.43;2.10;;;8.30;57.80;;;;;;5056528;28;20452;-87
2022/01/06 05:26:23;;;;;;;7.63;2.30;;;8.20;57.90;;;;;;5045628;28;20467;-86
2022/01/06 05:28:50;;;;;;;6.93;3.13;;;8.20;58.10;;;;;;5063984;28;20587;-88
2022/01/06 05:31:18;;;;;;;7.80;2.70;;;8.30;58.00;;;;;;5059101;28;20543;-87
2022/01/06 05:33:47;;;;;;;4.03;3.20;;;8.30;57.70;;;;;;5058264;28;20453;-88
2022/01/06 05:36:14;;;;;;;2.47;2.27;;;8.30;57.80;;;;;;5054784;28;20523;-88
2022/01/06 05:38:40;;;;;;;8.70;2.97;;;8.50;58.30;;;;;;5072482;28;20471;-89
2022/01/06 05:41:07;;;;;;;5.67;2.67;;;8.50;57.40;;;;;;5056589;28;20441;-86
2022/01/06 05:43:34;;;;;;;3.10;2.00;;;8.50;57.50;;;;;;5075964;28;20444;-86
2022/01/06 05:46:01;;;;;;;6.07;3.20;;;8.50;57.50;;;;;;5074157;28;20458;-86
2022/01/06 05:48:30;;;;;;;7.17;3.07;;;8.50;57.40;;;;;;5078084;28;20960;-87
2022/01/06 05:50:57;;;;;;;3.30;2.27;;;8.50;57.20;;;;;;5029895;28;20463;-87
2022/01/06 05:53:24;;;;;;;4.90;2.40;;;8.40;57.30;;;;;;5070652;28;20970;-86
2022/01/06 05:55:51;;;;;;;10.10;2.90;;;8.30;57.20;;;;;;5077316;28;20454;-87
2022/01/06 05:58:18;;;;;;;3.27;2.63;;;8.30;57.80;;;;;;5037785;28;20468;-86
2022/01/06 06:00:45;;;;;;;6.33;3.40;;;8.20;58.10;;;;;;5040487;28;20488;-86
2022/01/06 06:03:12;;;;;;;5.83;2.83;;;8.30;57.70;;;;;;5059592;28;20456;-89
2022/01/06 06:05:42;;;;;;;5.63;2.73;;;8.30;57.80;;;;;;5076010;28;20543;-87
2022/01/06 06:08:09;;;;;;;5.13;2.20;;;8.20;58.00;;;;;;5065192;28;21044;-88
2022/01/06 06:10:36;;;;;;;13.10;2.80;;;8.10;57.90;;;;;;5057611;28;20798;-86
2022/01/06 06:13:03;;;;;;;9.87;2.53;;;8.10;58.10;;;;;;5071077;28;20657;-85
2022/01/06 06:15:35;;;;;;;5.47;2.50;;;8.00;58.20;;;;;;5055952;28;20540;-87
2022/01/06 06:18:02;;;;;;;7.17;3.00;;;8.00;58.20;;;;;;5070806;28;21011;-86
2022/01/06 06:20:29;;;;;;;3.53;2.70;;;8.00;58.50;;;;;;5054007;28;20466;-88
2022/01/06 06:22:58;;;;;;;8.83;2.90;;;8.00;58.40;;;;;;5048688;28;20465;-87
2022/01/06 06:25:26;;;;;;;6.23;2.83;;;7.80;58.40;;;;;;5065250;28;20517;-86
2022/01/06 06:27:53;;;;;;;6.70;2.80;;;7.90;58.50;;;;;;5046218;28;20889;-87
2022/01/06 06:30:20;;;;;;;9.63;3.00;;;8.10;58.40;;;;;;5044137;28;20451;-86
2022/01/06 06:32:47;;;;;;;6.20;2.37;;;7.80;58.00;;;;;;5056620;28;21539;-87
2022/01/06 06:35:15;;;;;;;5.50;2.50;;;7.70;58.70;;;;;;5042290;28;20541;-86
2022/01/06 06:37:42;;;;;;;4.40;2.07;;;7.70;58.80;;;;;;5055566;28;20478;-89
2022/01/06 06:40:12;;;;;;;4.70;3.20;;;8.00;58.90;;;;;;5040902;28;20455;-87
2022/01/06 06:42:39;;;;;;;5.10;2.13;;;8.00;58.10;;;;;;5044510;28;20464;-86
2022/01/06 06:45:08;;;;;;;4.33;2.20;;;8.00;58.10;;;;;;5057445;28;20464;-87
2022/01/06 06:47:35;;;;;;;5.53;2.00;;;8.00;58.40;;;;;;5042311;28;20499;-86
2022/01/06 06:50:02;;;;;;;6.13;2.47;;;8.10;58.10;;;;;;5077180;28;20590;-88
2022/01/06 06:52:29;;;;;;;8.53;2.57;;;8.00;57.90;;;;;;5063395;28;20533;-89
2022/01/06 06:54:56;;;;;;;11.77;2.63;;;8.20;57.90;;;;;;5046678;28;20463;-89
2022/01/06 06:57:25;;;;;;;14.43;3.53;;;8.30;57.50;;;;;;5033788;28;20468;-86
2022/01/06 06:59:53;;;;;;;2.93;2.23;;;8.40;57.20;;;;;;5075951;28;20459;-87
2022/01/06 07:02:20;;;;;;;3.53;1.97;;;8.50;57.20;;;;;;5072428;28;20558;-88
2022/01/06 07:04:47;;;;;;;12.93;3.53;;;8.50;56.80;;;;;;5042094;28;20880;-87
2022/01/06 07:07:14;;;;;;;4.53;1.97;;;8.50;56.80;;;;;;5036522;28;20472;-87
2022/01/06 07:09:41;;;;;;;7.73;2.33;;;8.50;56.60;;;;;;5047547;28;20455;-86
2022/01/06 07:12:09;;;;;;;5.93;2.37;;;8.40;56.70;;;;;;5070760;28;20499;-86
2022/01/06 07:14:37;;;;;;;10.10;2.70;;;8.30;56.90;;;;;;5061059;28;20456;-88
2022/01/06 07:17:04;;;;;;;5.53;2.90;;;8.40;57.10;;;;;;5070170;28;20467;-86
2022/01/06 07:19:31;;;;;;;3.77;2.30;;;8.40;57.00;;;;;;5051911;28;20453;-87
2022/01/06 07:21:58;;;;;;;12.03;3.70;;;8.40;56.80;;;;;;5059618;28;21014;-87
2022/01/06 07:24:26;;;;;;;6.67;2.00;;;8.40;57.00;;;;;;5054948;28;20452;-86
2022/01/06 07:26:53;;;;;;;7.20;2.43;;;8.40;56.70;;;;;;5073462;28;20470;-88
2022/01/06 07:29:20;;;;;;;4.67;2.13;;;8.50;56.60;;;;;;5056514;28;20458;-87
2022/01/06 07:31:48;;;;;;;6.47;2.27;;;8.40;56.50;;;;;;5054312;28;20564;-89
2022/01/06 07:34:15;;;;;;;7.70;2.40;;;8.30;56.70;;;;;;5048459;28;20455;-86
2022/01/06 07:36:42;;;;;;;3.20;1.97;;;8.50;56.80;;;;;;5074619;28;20886;-86
2022/01/06 07:39:09;;;;;;;11.47;2.50;;;8.70;56.40;;;;;;5073281;28;20444;-86
2022/01/06 07:41:36;;;;;;;13.73;2.10;;;8.80;56.20;;;;;;5045957;28;20459;-87
2022/01/06 07:44:07;;;;;;;4.80;2.30;;;8.90;56.20;;;;;;5057141;28;20551;-86
2022/01/06 07:46:34;;;;;;;5.13;2.07;;;8.70;56.00;;;;;;5029175;28;20444;-85
2022/01/06 07:49:02;;;;;;;5.67;2.80;;;8.60;56.40;;;;;;5045472;28;20455;-86
2022/01/06 07:51:31;;;;;;;8.53;2.67;;;8.60;56.40;;;;;;5027811;28;20543;-87
2022/01/06 07:53:59;;;;;;;23.13;12.20;;;8.60;56.70;;;;;;5055174;28;20986;-87
2022/01/06 07:56:26;;;;;;;11.93;6.60;;;8.70;56.80;;;;;;5049077;28;20471;-88
2022/01/06 07:58:54;;;;;;;16.00;3.40;;;8.50;56.40;;;;;;5043403;28;20504;-87
2022/01/06 08:01:21;;;;;;;7.70;4.20;;;8.50;56.50;;;;;;5049833;28;20452;-86
2022/01/06 08:03:48;;;;;;;6.23;2.00;;;8.50;56.50;;;;;;5076076;28;20547;-87
2022/01/06 08:06:17;;;;;;;6.37;2.00;;;8.40;56.30;;;;;;5077354;28;20448;-86
2022/01/06 08:08:45;;;;;;;12.07;5.40;;;8.40;56.30;;;;;;5075497;28;21207;-88
2022/01/06 08:11:13;;;;;;;7.67;4.00;;;8.30;56.90;;;;;;5055051;28;20961;-85
2022/01/06 08:13:41;;;;;;;5.27;3.10;;;8.30;56.90;;;;;;5059128;28;20463;-88
2022/01/06 08:16:09;;;;;;;6.20;3.13;;;8.40;57.00;;;;;;5049842;28;20563;-86
2022/01/06 08:18:36;;;;;;;6.40;3.20;;;8.60;56.90;;;;;;5033029;28;20456;-87
2022/01/06 08:21:03;;;;;;;6.37;2.70;;;8.60;56.40;;;;;;5042970;28;20452;-88
2022/01/06 08:23:32;;;;;;;7.23;2.90;;;8.70;56.60;;;;;;5058602;28;21083;-86
2022/01/06 08:25:59;;;;;;;3.60;2.50;;;8.90;56.40;;;;;;5043788;28;20507;-85
2022/01/06 08:28:26;;;;;;;8.07;2.90;;;8.90;55.80;;;;;;5050559;28;20478;-85
2022/01/06 08:30:53;;;;;;;9.80;3.77;;;8.90;55.40;;;;;;5025059;28;20454;-86
2022/01/06 08:33:20;;;;;;;5.50;2.53;;;8.90;55.80;;;;;;5033656;28;20586;-84
2022/01/06 08:35:47;;;;;;;3.70;2.87;;;9.00;55.80;;;;;;5057170;28;20444;-86
2022/01/06 08:38:14;;;;;;;11.27;3.40;;;9.00;55.30;;;;;;5029348;28;20845;-86
2022/01/06 08:40:43;;;;;;;3.50;2.90;;;9.10;55.40;;;;;;5079683;28;20449;-88
2022/01/06 08:43:10;;;;;;;11.03;3.10;;;9.20;55.30;;;;;;5054783;28;20539;-88
2022/01/06 08:45:38;;;;;;;6.10;2.60;;;9.40;55.50;;;;;;5057408;28;20885;-88
2022/01/06 08:48:05;;;;;;;6.80;2.90;;;9.30;54.70;;;;;;5027226;28;20468;-90
2022/01/06 08:50:33;;;;;;;9.87;3.07;;;9.20;54.40;;;;;;5044689;28;20447;-90
2022/01/06 08:53:00;;;;;;;29.93;5.33;;;9.30;54.70;;;;;;5031700;28;20440;-89
2022/01/06 08:55:27;;;;;;;8.00;2.73;;;9.40;54.50;;;;;;5058533;28;20478;-89
2022/01/06 08:57:57;;;;;;;18.17;3.33;;;9.40;54.30;;;;;;5057004;28;20504;-88
2022/01/06 09:00:24;;;;;;;4.70;2.63;;;9.50;54.50;;;;;;5044244;28;20456;-87
2022/01/06 09:02:51;;;;;;;9.80;4.00;;;9.50;54.50;;;;;;5048287;28;21455;-89
2022/01/06 09:05:18;;;;;;;7.70;3.83;;;9.40;54.90;;;;;;5048637;28;20882;-88
2022/01/06 09:07:45;;;;;;;4.73;2.77;;;9.10;54.50;;;;;;5052466;28;20462;-88
2022/01/06 09:10:13;;;;;;;8.23;4.10;;;9.10;55.30;;;;;;5060215;28;20452;-86
2022/01/06 09:12:42;;;;;;;14.23;3.07;;;9.20;55.60;;;;;;5052081;28;20528;-88
2022/01/06 09:15:11;;;;;;;7.70;5.43;;;9.10;55.10;;;;;;5049104;28;20444;-88
2022/01/06 09:17:38;;;;;;;6.30;3.40;;;9.10;55.20;;;;;;5046045;28;20482;-87
2022/01/06 09:20:07;;;;;;;7.80;3.83;;;8.90;55.40;;;;;;5070135;28;20467;-86
2022/01/06 09:22:34;;;;;;;8.57;3.10;;;8.70;55.70;;;;;;5053298;28;20531;-86
2022/01/06 09:25:01;;;;;;;6.40;2.93;;;8.70;55.50;;;;;;5072401;28;20487;-87
2022/01/06 09:27:30;;;;;;;4.37;3.10;;;8.70;55.90;;;;;;5071360;28;20479;-87
2022/01/06 09:29:57;;;;;;;4.60;2.80;;;8.80;56.40;;;;;;5030259;28;20554;-87
2022/01/06 09:32:26;;;;;;;6.70;3.97;;;8.90;55.30;;;;;;5052495;28;20444;-87
2022/01/06 09:34:53;;;;;;;10.83;3.67;;;8.80;55.60;;;;;;5068278;28;20445;-87
2022/01/06 09:37:21;;;;;;;10.60;3.37;;;8.90;55.70;;;;;;5070227;28;20498;-85
2022/01/06 09:39:50;;;;;;;5.60;2.53;;;8.80;55.00;;;;;;5058917;28;20462;-86
2022/01/06 09:42:18;;;;;;;17.57;2.93;;;8.70;54.50;;;;;;5037623;28;20447;-87
2022/01/06 09:44:47;;;;;;;4.00;3.40;;;8.70;55.50;;;;;;5051563;28;20446;-87
2022/01/06 09:47:14;;;;;;;6.93;3.90;;;8.50;54.80;;;;;;5068833;28;20475;-88
2022/01/06 09:49:44;;;;;;;5.70;2.73;;;8.60;55.30;;;;;;5067679;28;20538;-87
2022/01/06 09:52:12;;;;;;;7.20;2.43;;;8.50;55.10;;;;;;5067692;28;20476;-88
2022/01/06 09:54:41;;;;;;;9.60;4.83;;;8.50;55.60;;;;;;5071665;28;20477;-87
2022/01/06 09:57:08;;;;;;;9.17;4.20;;;8.20;56.00;;;;;;5039493;28;20563;-87
2022/01/06 09:59:35;;;;;;;5.33;3.40;;;8.30;56.20;;;;;;5077530;28;20448;-87
2022/01/06 10:02:03;;;;;;;9.77;3.90;;;8.40;55.90;;;;;;5040798;28;20535;-87
2022/01/06 10:04:30;;;;;;;3.20;2.53;;;8.50;56.00;;;;;;5076716;28;20465;-87
2022/01/06 10:07:02;;;;;;;9.30;3.50;;;8.60;55.70;;;;;;5032636;28;20472;-85
2022/01/06 10:09:30;;;;;;;8.50;4.30;;;8.60;55.10;;;;;;5073125;28;20476;-87
2022/01/06 10:11:58;;;;;;;10.17;3.70;;;8.70;55.20;;;;;;5065969;28;20477;-87
2022/01/06 10:14:37;;;;;;;5.70;2.77;;;8.80;55.30;;;;;;5070901;28;20451;-86
2022/01/06 10:17:05;;;;;;;7.20;2.70;;;8.70;54.90;;;;;;5064801;28;20471;-89
2022/01/06 10:19:32;;;;;;;15.83;5.63;;;8.70;55.10;;;;;;5055056;28;20532;-87
2022/01/06 10:22:00;;;;;;;6.23;4.33;;;8.60;55.20;;;;;;5048419;28;20810;-88
2022/01/06 10:24:28;;;;;;;9.47;4.80;;;8.70;55.30;;;;;;5046888;28;20451;-88
2022/01/06 10:26:57;;;;;;;10.97;3.50;;;8.70;54.90;;;;;;5037345;28;20456;-89
2022/01/06 10:29:25;;;;;;;13.20;4.20;;;8.80;54.40;;;;;;5033860;28;20471;-88
2022/01/06 10:31:54;;;;;;;9.43;3.40;;;8.70;54.40;;;;;;5035899;28;20458;-90
2022/01/06 10:34:21;;;;;;;9.37;4.00;;;8.60;54.30;;;;;;5029243;28;20550;-87
2022/01/06 10:36:49;;;;;;;7.40;5.03;;;8.70;54.90;;;;;;5052347;28;20436;-88
2022/01/06 10:39:17;;;;;;;7.10;4.23;;;8.90;54.90;;;;;;5050495;28;20952;-89
2022/01/06 10:41:45;;;;;;;5.37;3.13;;;9.00;54.00;;;;;;5055437;28;20483;-89
2022/01/06 10:44:13;;;;;;;7.60;3.50;;;9.10;54.00;;;;;;5055118;28;20501;-89
2022/01/06 10:46:42;;;;;;;11.90;3.43;;;9.20;54.20;;;;;;5084167;28;20459;-89
2022/01/06 10:49:12;;;;;;;8.17;3.43;;;9.20;54.30;;;;;;5035827;28;20476;-89
2022/01/06 10:51:42;;;;;;;7.53;5.00;;;9.20;54.10;;;;;;5034596;28;20904;-88
2022/01/06 10:54:21;;;;;;;7.70;4.37;;;9.30;54.30;;;;;;5063726;28;20828;-89
2022/01/06 10:56:59;;;;;;;5.40;3.93;;;9.20;54.00;;;;;;5053758;28;20450;-90
2022/01/06 10:59:29;;;;;;;8.33;4.60;;;9.30;54.30;;;;;;5049329;28;20576;-89
2022/01/06 11:01:56;;;;;;;5.50;3.50;;;9.30;53.70;;;;;;5043442;28;20488;-90
2022/01/06 11:04:24;;;;;;;4.77;3.30;;;9.30;53.70;;;;;;5048943;28;20452;-88
2022/01/06 11:06:51;;;;;;;13.70;5.60;;;9.30;52.60;;;;;;5037693;28;20457;-88
2022/01/06 11:09:20;;;;;;;12.57;6.03;;;9.10;52.00;;;;;;5046496;28;20481;-89
2022/01/06 11:14:33;;;;;;;7.07;4.90;;;8.90;53.50;;;;;;5051642;28;20490;-87
2022/01/06 11:17:00;;;;;;;6.73;4.40;;;9.10;52.60;;;;;;5062207;28;20478;-88
2022/01/06 11:19:29;;;;;;;11.37;3.40;;;9.40;52.40;;;;;;5053786;28;21303;-89
2022/01/06 11:22:02;;;;;;;7.43;3.10;;;9.50;52.10;;;;;;5038029;28;20451;-89
2022/01/06 11:24:32;;;;;;;5.87;3.00;;;9.50;52.40;;;;;;5044591;28;20452;-90
2022/01/06 11:27:02;;;;;;;8.73;3.27;;;9.60;52.20;;;;;;5035872;28;20463;-88
2022/01/06 11:29:32;;;;;;;7.30;2.90;;;9.70;51.90;;;;;;5042538;28;20887;-88
2022/01/06 11:32:00;;;;;;;6.40;3.17;;;9.70;52.30;;;;;;5043148;28;20447;-90
2022/01/06 11:34:29;;;;;;;8.83;3.47;;;9.70;51.10;;;;;;5057710;28;20978;-88
2022/01/06 11:36:57;;;;;;;4.43;3.07;;;9.80;51.10;;;;;;5038382;28;20455;-89
2022/01/06 11:39:28;;;;;;;6.30;2.90;;;9.90;51.20;;;;;;5042218;28;20471;-89
2022/01/06 11:41:58;;;;;;;8.10;3.20;;;9.70;50.20;;;;;;5085539;28;20458;-88
2022/01/06 11:44:27;;;;;;;5.77;3.07;;;9.70;50.80;;;;;;5045048;28;20461;-90
2022/01/06 11:46:57;;;;;;;10.40;3.00;;;9.80;49.80;;;;;;5056416;28;20466;-88
2022/01/06 11:49:32;;;;;;;4.90;2.90;;;9.40;48.90;;;;;;5055649;28;20495;-87
2022/01/06 11:52:09;;;;;;;8.23;4.30;;;9.40;50.20;;;;;;5035744;28;20572;-87
2022/01/06 11:54:47;;;;;;;3.90;3.00;;;9.10;49.30;;;;;;5065643;28;20877;-89
2022/01/06 11:57:27;;;;;;;6.53;2.80;;;9.00;50.70;;;;;;5067569;28;20573;-89
2022/01/06 11:59:54;;;;;;;13.70;5.83;;;9.10;51.00;;;;;;5072597;28;20563;-87
2022/01/06 12:02:22;;;;;;;9.50;5.53;;;9.20;50.50;;;;;;5070876;28;20543;-90
2022/01/06 12:04:59;;;;;;;9.47;3.33;;;9.30;50.80;;;;;;5052769;28;20501;-88
2022/01/06 12:07:26;;;;;;;7.13;4.17;;;9.40;50.20;;;;;;5050256;28;20503;-87
2022/01/06 12:10:03;;;;;;;6.73;4.07;;;9.30;50.30;;;;;;5052050;28;20479;-91
2022/01/06 12:12:36;;;;;;;10.93;3.87;;;9.20;50.90;;;;;;5043297;28;20451;-89
2022/01/06 12:15:08;;;;;;;6.03;2.63;;;9.10;50.90;;;;;;5058177;28;20442;-88
2022/01/06 12:17:36;;;;;;;2.80;2.50;;;9.00;51.00;;;;;;5065364;28;20479;-86
2022/01/06 12:20:06;;;;;;;5.10;2.80;;;9.20;50.50;;;;;;5038482;28;20448;-89
2022/01/06 12:22:33;;;;;;;9.50;3.90;;;9.30;50.40;;;;;;5052564;28;20467;-89
2022/01/06 12:25:01;;;;;;;3.90;3.30;;;9.50;50.60;;;;;;5080215;28;20512;-90
2022/01/06 12:27:28;;;;;;;5.17;2.47;;;9.60;49.80;;;;;;5057895;28;20484;-90
2022/01/06 12:29:57;;;;;;;6.23;4.40;;;9.70;49.40;;;;;;5045900;28;20463;-88
2022/01/06 12:32:24;;;;;;;3.80;3.00;;;9.90;49.80;;;;;;5051387;28;20506;-88
2022/01/06 12:34:53;;;;;;;11.97;3.50;;;9.90;49.30;;;;;;5058608;28;20448;-90
2022/01/06 12:37:28;;;;;;;10.90;3.50;;;9.90;49.60;;;;;;5066559;28;20464;-88
2022/01/06 12:39:56;;;;;;;6.93;3.10;;;9.90;48.00;;;;;;5076331;28;20442;-89
2022/01/06 12:42:24;;;;;;;5.00;2.30;;;9.70;47.20;;;;;;5067808;28;20463;-89
2022/01/06 12:44:52;;;;;;;5.90;4.00;;;9.80;47.60;;;;;;5040739;28;20690;-89
2022/01/06 12:47:21;;;;;;;5.70;3.60;;;10.10;47.50;;;;;;5064054;28;20567;-89
2022/01/06 12:49:58;;;;;;;9.73;5.33;;;10.60;47.40;;;;;;5057618;28;20562;-89
2022/01/06 12:52:26;;;;;;;9.90;4.47;;;11.00;46.30;;;;;;5084984;28;20452;-88
2022/01/06 12:54:53;;;;;;;12.03;3.10;;;11.30;49.40;;;;;;5053215;28;20500;-88
2022/01/06 12:57:21;;;;;;;3.00;2.43;;;11.60;50.30;;;;;;5050590;28;21562;-88
2022/01/06 12:59:53;;;;;;;3.13;2.10;;;12.00;47.80;;;;;;5038199;28;20448;-89
2022/01/06 13:02:22;;;;;;;3.43;1.70;;;12.30;46.00;;;;;;5053477;28;20823;-88
2022/01/06 13:04:51;;;;;;;3.13;1.70;;;12.50;45.40;;;;;;5059512;28;20487;-89
2022/01/06 13:07:19;;;;;;;3.57;1.90;;;12.70;43.20;;;;;;5057759;28;20506;-89
2022/01/06 13:09:48;;;;;;;5.23;3.13;;;12.70;42.50;;;;;;5089666;28;20538;-91